createdAt,value
2023-04-06T00:00:05.590Z,9.70
2023-04-06T00:02:37.759Z,9.30
2023-04-06T00:05:08.117Z,9.77
2023-04-06T00:07:36.535Z,10.30
2023-04-06T00:10:06.087Z,9.70
2023-04-06T00:12:34.235Z,10.27
2023-04-06T00:15:02.871Z,10.10
2023-04-06T00:17:31.028Z,10.30
2023-04-06T00:19:59.126Z,10.20
2023-04-06T00:22:28.571Z,9.93
2023-04-06T00:24:56.694Z,9.80
2023-04-06T00:27:24.736Z,10.13
2023-04-06T00:29:52.893Z,10.70
2023-04-06T00:32:21.227Z,10.63
2023-04-06T00:34:49.400Z,11.47
2023-04-06T00:37:17.515Z,11.00
2023-04-06T00:39:47.036Z,11.00
2023-04-06T00:42:15.639Z,11.00
2023-04-06T00:44:43.942Z,10.97
2023-04-06T00:47:12.291Z,11.80
2023-04-06T00:49:40.852Z,11.70
2023-04-06T00:52:10.359Z,10.93
2023-04-06T00:54:38.888Z,11.40
2023-04-06T00:57:08.958Z,11.43
2023-04-06T00:59:37.288Z,11.93
2023-04-06T01:02:08.885Z,12.17
2023-04-06T01:04:44.147Z,10.70
2023-04-06T01:07:20.925Z,10.80
2023-04-06T01:10:03.940Z,11.63
2023-04-06T01:12:35.141Z,12.33
2023-04-06T01:15:08.580Z,12.60
2023-04-06T01:17:39.427Z,12.53
2023-04-06T01:20:13.350Z,12.00
2023-04-06T01:22:43.393Z,12.77
2023-04-06T01:25:13.252Z,11.60
2023-04-06T01:28:01.625Z,12.27
2023-04-06T01:30:46.122Z,11.83
2023-04-06T01:33:26.578Z,12.80
2023-04-06T01:36:02.079Z,12.10
2023-04-06T01:38:32.221Z,12.83
2023-04-06T01:41:00.322Z,13.13
2023-04-06T01:43:33.389Z,12.23
2023-04-06T01:46:07.632Z,12.67
2023-04-06T01:48:38.597Z,12.80
2023-04-06T01:51:27.682Z,12.37
2023-04-06T01:54:03.591Z,13.57
2023-04-06T01:56:40.961Z,12.33
2023-04-06T01:59:29.374Z,13.43
2023-04-06T02:01:58.800Z,13.17
2023-04-06T02:04:28.899Z,13.17
2023-04-06T02:07:07.365Z,12.97
2023-04-06T02:09:37.213Z,12.43
2023-04-06T02:12:08.280Z,13.30
2023-04-06T02:14:36.600Z,14.13
2023-04-06T02:17:04.681Z,14.33
2023-04-06T02:19:33.271Z,13.97
2023-04-06T02:22:01.407Z,13.60
2023-04-06T02:24:29.515Z,14.20
2023-04-06T02:26:58.980Z,15.40
2023-04-06T02:29:27.056Z,15.57
2023-04-06T02:31:55.350Z,19.20
2023-04-06T02:34:24.284Z,18.63
2023-04-06T02:36:53.565Z,21.93
2023-04-06T02:39:21.716Z,20.63
2023-04-06T02:41:49.857Z,21.70
2023-04-06T02:44:23.816Z,19.57
2023-04-06T02:46:51.922Z,20.43
2023-04-06T02:49:20.063Z,19.10
2023-04-06T02:51:48.234Z,17.23
2023-04-06T02:54:21.238Z,17.63
2023-04-06T02:56:49.323Z,16.43
2023-04-06T02:59:17.555Z,16.80
2023-04-06T03:01:55.364Z,15.87
2023-04-06T03:04:26.381Z,16.13
2023-04-06T03:06:58.779Z,16.80
2023-04-06T03:09:36.221Z,16.70
2023-04-06T03:12:04.502Z,16.43
2023-04-06T03:14:39.646Z,16.57
2023-04-06T03:17:09.135Z,16.67
2023-04-06T03:19:37.496Z,16.57
2023-04-06T03:22:06.098Z,18.13
2023-04-06T03:24:34.434Z,17.73
2023-04-06T03:27:02.575Z,17.40
2023-04-06T03:29:30.962Z,17.70
2023-04-06T03:31:59.172Z,18.30
2023-04-06T03:34:37.252Z,18.43
2023-04-06T03:37:10.285Z,19.00
2023-04-06T03:39:44.269Z,17.47
2023-04-06T03:42:17.611Z,18.10
2023-04-06T03:44:53.859Z,18.10
2023-04-06T03:47:22.328Z,18.37
2023-04-06T03:49:51.846Z,18.37
2023-04-06T03:52:20.231Z,18.50
2023-04-06T03:54:48.303Z,18.53
2023-04-06T03:57:16.373Z,17.77
2023-04-06T03:59:44.615Z,18.93
2023-04-06T04:02:12.777Z,19.00
2023-04-06T04:04:41.292Z,18.70
2023-04-06T04:07:10.868Z,18.00
2023-04-06T04:09:39.149Z,17.50
2023-04-06T04:12:07.767Z,18.83
2023-04-06T04:14:36.565Z,18.10
2023-04-06T04:17:04.750Z,18.67
2023-04-06T04:19:32.898Z,18.57
2023-04-06T04:22:01.106Z,17.43
2023-04-06T04:24:36.355Z,16.17
2023-04-06T04:27:05.733Z,17.70
2023-04-06T04:29:34.672Z,18.37
2023-04-06T04:32:07.423Z,17.63
2023-04-06T04:34:35.637Z,18.23
2023-04-06T04:37:06.286Z,18.10
2023-04-06T04:39:47.405Z,17.70
2023-04-06T04:42:15.878Z,19.47
2023-04-06T04:44:49.320Z,19.57
2023-04-06T04:47:23.237Z,21.80
2023-04-06T04:49:51.315Z,22.37
2023-04-06T04:52:23.828Z,19.70
2023-04-06T04:55:03.469Z,18.07
2023-04-06T04:57:31.856Z,18.07
2023-04-06T05:00:00.047Z,17.03
2023-04-06T05:02:28.294Z,17.03
2023-04-06T05:05:10.591Z,17.67
2023-04-06T05:07:40.604Z,16.77
2023-04-06T05:10:14.403Z,17.20
2023-04-06T05:12:52.108Z,16.40
2023-04-06T05:15:20.566Z,17.97
2023-04-06T05:17:51.362Z,16.93
2023-04-06T05:20:24.319Z,17.07
2023-04-06T05:22:53.386Z,17.73
2023-04-06T05:25:22.940Z,17.13
2023-04-06T05:27:54.271Z,17.13
2023-04-06T05:30:34.149Z,16.90
2023-04-06T05:33:02.298Z,17.57
2023-04-06T05:35:38.936Z,17.40
2023-04-06T05:38:12.073Z,17.53
2023-04-06T05:40:42.179Z,17.17
2023-04-06T05:43:14.150Z,17.30
2023-04-06T05:45:46.560Z,17.17
2023-04-06T05:48:14.938Z,16.43
2023-04-06T05:50:43.029Z,16.50
2023-04-06T05:53:14.086Z,16.00
2023-04-06T05:55:48.105Z,16.40
2023-04-06T05:58:19.798Z,15.53
2023-04-06T06:00:49.382Z,15.57
2023-04-06T06:03:19.057Z,15.90
2023-04-06T06:05:52.780Z,15.63
2023-04-06T06:08:28.376Z,14.73
2023-04-06T06:10:58.794Z,14.53
2023-04-06T06:13:27.249Z,13.67
2023-04-06T06:15:56.549Z,14.00
2023-04-06T06:18:25.416Z,12.47
2023-04-06T06:20:55.565Z,13.20
2023-04-06T06:23:23.781Z,12.47
2023-04-06T06:25:51.989Z,12.57
2023-04-06T06:28:22.412Z,12.57
2023-04-06T06:30:50.461Z,12.67
2023-04-06T06:33:22.819Z,12.17
2023-04-06T06:35:54.064Z,11.93
2023-04-06T06:38:23.760Z,11.93
2023-04-06T06:40:52.825Z,11.40
2023-04-06T06:43:23.301Z,11.93
2023-04-06T06:45:57.508Z,11.67
2023-04-06T06:48:26.026Z,11.47
2023-04-06T06:50:55.302Z,11.40
2023-04-06T06:53:23.547Z,10.87
2023-04-06T06:55:51.711Z,10.80
2023-04-06T06:58:20.808Z,10.73
2023-04-06T07:00:50.975Z,10.53
2023-04-06T07:03:19.143Z,10.80
2023-04-06T07:05:54.282Z,10.70
2023-04-06T07:08:24.999Z,10.53
2023-04-06T07:10:54.478Z,9.90
2023-04-06T07:13:23.698Z,10.03
2023-04-06T07:15:56.077Z,10.90
2023-04-06T07:18:24.729Z,10.47
2023-04-06T07:20:52.981Z,10.00
2023-04-06T07:23:21.432Z,9.50
2023-04-06T07:25:52.006Z,9.17
2023-04-06T07:28:20.248Z,8.83
2023-04-06T07:30:48.508Z,9.73
2023-04-06T07:33:18.492Z,8.83
2023-04-06T07:35:47.503Z,9.63
2023-04-06T07:38:16.026Z,9.43
2023-04-06T07:40:44.763Z,9.27
2023-04-06T07:43:13.260Z,8.67
2023-04-06T07:45:41.703Z,9.00
2023-04-06T07:48:10.062Z,8.90
2023-04-06T07:50:39.954Z,9.30
2023-04-06T07:53:08.436Z,8.63
2023-04-06T07:55:36.861Z,8.77
2023-04-06T07:58:04.979Z,8.40
2023-04-06T08:00:33.328Z,8.97
2023-04-06T08:03:01.654Z,8.97
2023-04-06T08:05:30.229Z,8.60
2023-04-06T08:07:59.724Z,7.90
2023-04-06T08:10:27.850Z,9.30
2023-04-06T08:12:55.928Z,8.57
2023-04-06T08:15:23.998Z,8.55
2023-04-06T08:17:52.231Z,8.43
2023-04-06T08:20:20.370Z,8.25
2023-04-06T08:22:48.882Z,8.95
2023-04-06T08:25:19.681Z,8.90
2023-04-06T08:27:47.840Z,8.02
2023-04-06T08:30:16.813Z,7.95
2023-04-06T08:32:45.459Z,8.05
2023-04-06T08:35:13.981Z,8.02
2023-04-06T08:37:42.157Z,8.35
2023-04-06T08:40:10.942Z,8.50
2023-04-06T08:42:46.320Z,8.25
2023-04-06T08:45:16.647Z,8.07
2023-04-06T08:47:44.966Z,7.75
2023-04-06T08:50:13.545Z,7.20
2023-04-06T08:52:42.676Z,7.82
2023-04-06T08:55:11.230Z,7.88
2023-04-06T08:57:41.458Z,7.55
2023-04-06T09:00:12.731Z,7.75
2023-04-06T09:02:42.965Z,8.50
2023-04-06T09:05:11.952Z,7.80
2023-04-06T09:07:40.122Z,8.05
2023-04-06T09:10:09.287Z,7.57
2023-04-06T09:12:37.778Z,8.00
2023-04-06T09:15:08.634Z,7.53
2023-04-06T09:17:37.840Z,8.18
2023-04-06T09:20:07.175Z,7.88
2023-04-06T09:22:38.809Z,7.20
2023-04-06T09:25:08.390Z,7.97
2023-04-06T09:27:37.761Z,7.68
2023-04-06T09:30:09.375Z,8.65
2023-04-06T09:32:48.047Z,8.15
2023-04-06T09:35:16.750Z,7.88
2023-04-06T09:37:45.332Z,8.02
2023-04-06T09:40:14.478Z,8.07
2023-04-06T09:42:43.553Z,8.10
2023-04-06T09:45:13.508Z,8.27
2023-04-06T09:47:42.625Z,8.13
2023-04-06T09:50:13.042Z,8.40
2023-04-06T09:52:44.376Z,8.57
2023-04-06T09:55:12.912Z,8.27
2023-04-06T09:57:47.568Z,8.50
2023-04-06T10:00:23.172Z,9.32
2023-04-06T10:02:58.630Z,9.00
2023-04-06T10:05:36.185Z,9.32
2023-04-06T10:08:08.382Z,9.30
2023-04-06T10:10:36.586Z,9.38
2023-04-06T10:13:06.915Z,9.15
2023-04-06T10:15:36.504Z,8.65
2023-04-06T10:18:05.770Z,8.73
2023-04-06T10:20:40.923Z,8.63
2023-04-06T10:23:16.943Z,8.57
2023-04-06T10:25:54.740Z,9.05
2023-04-06T10:28:22.869Z,8.55
2023-04-06T10:30:59.670Z,9.02
2023-04-06T10:33:28.410Z,9.15
2023-04-06T10:35:58.155Z,9.55
2023-04-06T10:38:39.682Z,9.85
2023-04-06T10:41:11.207Z,10.35
2023-04-06T10:43:41.059Z,10.70
2023-04-06T10:46:11.914Z,10.27
2023-04-06T10:48:42.071Z,10.65
2023-04-06T10:51:14.271Z,11.60
2023-04-06T10:53:43.964Z,10.85
2023-04-06T10:56:13.465Z,9.77
2023-04-06T10:58:47.045Z,11.63
2023-04-06T11:01:17.256Z,10.57
2023-04-06T11:03:46.543Z,10.30
2023-04-06T11:06:20.793Z,10.98
2023-04-06T11:08:49.225Z,11.70
2023-04-06T11:11:20.211Z,11.50
2023-04-06T11:13:50.674Z,12.57
2023-04-06T11:16:21.488Z,11.32
2023-04-06T11:18:54.601Z,12.50
2023-04-06T11:21:34.135Z,12.13
2023-04-06T11:24:13.188Z,12.30
2023-04-06T11:26:42.860Z,11.95
2023-04-06T11:29:11.357Z,11.57
2023-04-06T11:31:46.877Z,12.13
2023-04-06T11:34:16.016Z,11.93
2023-04-06T11:36:44.890Z,12.02
2023-04-06T11:39:14.676Z,12.00
2023-04-06T11:41:42.879Z,12.15
2023-04-06T11:44:11.230Z,12.25
2023-04-06T11:46:39.422Z,12.52
2023-04-06T11:49:09.049Z,13.27
2023-04-06T11:51:38.771Z,14.00
2023-04-06T11:54:06.975Z,13.48
2023-04-06T11:56:35.029Z,11.75
2023-04-06T11:59:03.247Z,12.45
2023-04-06T12:01:34.139Z,12.50
2023-04-06T12:04:05.209Z,12.82
2023-04-06T12:06:34.719Z,12.90
2023-04-06T12:09:02.883Z,13.00
2023-04-06T12:11:31.057Z,13.02
2023-04-06T12:14:00.373Z,13.00
2023-04-06T12:16:28.585Z,13.18
2023-04-06T12:18:57.032Z,12.80
2023-04-06T12:21:25.436Z,12.25
2023-04-06T12:23:55.031Z,13.40
2023-04-06T12:26:23.371Z,12.35
2023-04-06T12:28:51.480Z,13.57
2023-04-06T12:31:20.565Z,12.70
2023-04-06T12:33:49.569Z,13.15
2023-04-06T12:36:20.083Z,12.05
2023-04-06T12:39:14.636Z,12.93
2023-04-06T12:41:42.703Z,12.98
2023-04-06T12:44:10.979Z,11.45
2023-04-06T12:46:39.161Z,12.88
2023-04-06T12:49:07.297Z,12.68
2023-04-06T12:51:35.505Z,12.85
2023-04-06T12:54:03.696Z,13.27
2023-04-06T12:56:33.685Z,12.50
2023-04-06T12:59:02.279Z,12.57
2023-04-06T13:01:30.785Z,12.40
2023-04-06T13:04:00.234Z,13.07
2023-04-06T13:06:31.058Z,12.73
2023-04-06T13:08:59.605Z,12.98
2023-04-06T13:11:28.724Z,12.73
2023-04-06T13:13:58.483Z,12.25
2023-04-06T13:16:26.722Z,12.30
2023-04-06T13:18:55.238Z,12.98
2023-04-06T13:21:23.349Z,13.18
2023-04-06T13:23:51.921Z,12.35
2023-04-06T13:26:20.102Z,12.52
2023-04-06T13:28:52.394Z,12.82
2023-04-06T13:31:22.134Z,13.20
2023-04-06T13:33:50.475Z,12.90
2023-04-06T13:36:18.612Z,13.00
2023-04-06T13:38:47.831Z,12.57
2023-04-06T13:41:21.929Z,13.02
2023-04-06T13:43:50.766Z,14.63
2023-04-06T13:46:19.026Z,14.40
2023-04-06T13:48:49.087Z,13.63
2023-04-06T13:51:17.338Z,13.65
2023-04-06T13:53:45.608Z,14.10
2023-04-06T13:56:13.620Z,13.30
2023-04-06T13:58:41.840Z,13.77
2023-04-06T14:01:11.399Z,16.10
2023-04-06T14:03:40.562Z,15.60
2023-04-06T14:08:45.448Z,15.57
2023-04-06T14:11:14.101Z,15.60
2023-04-06T14:13:42.942Z,15.88
2023-04-06T14:16:11.178Z,17.15
2023-04-06T14:18:39.732Z,16.50
2023-04-06T14:21:07.874Z,15.18
2023-04-06T14:23:38.012Z,15.77
2023-04-06T14:26:07.497Z,15.43
2023-04-06T14:28:35.975Z,14.85
2023-04-06T14:31:11.364Z,14.70
2023-04-06T14:33:39.451Z,16.40
2023-04-06T14:36:08.131Z,15.15
2023-04-06T14:38:37.659Z,16.40
2023-04-06T14:41:06.034Z,16.60
2023-04-06T14:43:34.221Z,14.40
2023-04-06T14:46:03.068Z,15.07
2023-04-06T14:48:31.321Z,14.65
2023-04-06T14:50:59.699Z,14.73
2023-04-06T14:53:28.786Z,15.43
2023-04-06T14:55:58.565Z,15.15
2023-04-06T14:58:27.725Z,14.77
2023-04-06T15:00:58.908Z,16.15
2023-04-06T15:03:27.261Z,17.92
2023-04-06T15:05:55.890Z,15.70
2023-04-06T15:08:24.195Z,15.30
2023-04-06T15:10:52.707Z,15.63
2023-04-06T15:13:22.164Z,16.45
2023-04-06T15:15:53.210Z,16.35
2023-04-06T15:18:22.341Z,16.02
2023-04-06T15:20:50.708Z,15.68
2023-04-06T15:23:20.863Z,17.02
2023-04-06T15:25:49.279Z,18.13
2023-04-06T15:28:17.360Z,17.67
2023-04-06T15:30:46.796Z,18.15
2023-04-06T15:33:16.261Z,16.65
2023-04-06T15:35:44.303Z,18.15
2023-04-06T15:38:12.546Z,17.80
2023-04-06T15:40:45.725Z,19.27
2023-04-06T15:43:14.402Z,18.75
2023-04-06T15:45:58.172Z,18.73
2023-04-06T15:48:26.644Z,19.33
2023-04-06T15:51:00.632Z,18.67
2023-04-06T15:53:28.990Z,18.40
2023-04-06T15:56:01.352Z,19.40
2023-04-06T15:58:29.594Z,18.35
2023-04-06T16:00:59.187Z,20.63
2023-04-06T16:03:27.641Z,25.02
2023-04-06T16:06:08.162Z,26.52
2023-04-06T16:08:40.559Z,19.80
2023-04-06T16:11:09.200Z,21.80
2023-04-06T16:13:37.870Z,20.38
2023-04-06T16:16:08.191Z,19.50
2023-04-06T16:18:37.349Z,22.40
2023-04-06T16:21:05.582Z,26.75
2023-04-06T16:23:34.266Z,37.00
2023-04-06T16:26:02.491Z,31.25
2023-04-06T16:28:31.460Z,23.48
2023-04-06T16:30:59.493Z,21.17
2023-04-06T16:33:28.920Z,19.75
2023-04-06T16:35:56.936Z,20.85
2023-04-06T16:38:25.781Z,20.48
2023-04-06T16:41:01.644Z,21.38
2023-04-06T16:43:29.806Z,19.40
2023-04-06T16:45:57.846Z,21.00
2023-04-06T16:48:25.976Z,20.38
2023-04-06T16:50:56.241Z,19.90
2023-04-06T16:53:24.340Z,20.85
2023-04-06T16:55:52.478Z,20.90
2023-04-06T16:58:20.577Z,20.02
2023-04-06T17:00:48.616Z,20.40
2023-04-06T17:03:16.962Z,20.73
2023-04-06T17:05:45.455Z,19.25
2023-04-06T17:08:14.885Z,19.73
2023-04-06T17:13:14.957Z,20.13
2023-04-06T17:15:44.242Z,20.08
2023-04-06T17:18:12.863Z,20.27
2023-04-06T17:20:41.355Z,19.20
2023-04-06T17:23:09.452Z,19.83
2023-04-06T17:25:39.024Z,18.95
2023-04-06T17:28:07.158Z,18.77
2023-04-06T17:30:35.297Z,19.48
2023-04-06T17:33:03.672Z,20.83
2023-04-06T17:35:31.816Z,20.02
2023-04-06T17:37:59.888Z,20.70
2023-04-06T17:40:27.943Z,18.92
2023-04-06T17:42:57.577Z,19.73
2023-04-06T17:45:25.898Z,17.67
2023-04-06T17:47:53.912Z,18.52
2023-04-06T17:50:22.114Z,16.85
2023-04-06T17:52:52.053Z,16.45
2023-04-06T17:55:22.490Z,17.27
2023-04-06T17:57:51.374Z,14.68
2023-04-06T18:00:24.347Z,16.25
2023-04-06T18:02:54.404Z,15.75
2023-04-06T18:05:43.795Z,15.48
2023-04-06T18:08:12.761Z,15.43
2023-04-06T18:10:42.335Z,14.82
2023-04-06T18:13:11.760Z,14.77
2023-04-06T18:15:41.383Z,14.25
2023-04-06T18:18:09.580Z,15.02
2023-04-06T18:20:41.260Z,15.52
2023-04-06T18:23:09.353Z,15.70
2023-04-06T18:25:39.768Z,15.35
2023-04-06T18:28:08.451Z,15.18
2023-04-06T18:30:36.576Z,15.55
2023-04-06T18:33:07.643Z,15.75
2023-04-06T18:35:35.922Z,15.32
2023-04-06T18:38:04.033Z,15.25
2023-04-06T18:40:33.177Z,15.88
2023-04-06T18:43:01.884Z,15.35
2023-04-06T18:45:30.002Z,15.60
2023-04-06T18:47:58.222Z,14.75
2023-04-06T18:50:27.704Z,15.60
2023-04-06T18:52:56.129Z,15.90
2023-04-06T18:55:24.177Z,16.55
2023-04-06T18:57:52.316Z,14.95
2023-04-06T19:00:20.694Z,15.85
2023-04-06T19:02:49.183Z,15.65
2023-04-06T19:05:17.365Z,15.60
2023-04-06T19:07:52.399Z,15.85
2023-04-06T19:10:20.996Z,16.02
2023-04-06T19:12:49.719Z,16.10
2023-04-06T19:15:17.892Z,17.02
2023-04-06T19:17:45.969Z,15.38
2023-04-06T19:20:14.153Z,16.73
2023-04-06T19:22:42.264Z,16.55
2023-04-06T19:25:12.155Z,16.77
2023-04-06T19:27:40.380Z,17.65
2023-04-06T19:30:09.840Z,15.98
2023-04-06T19:32:38.594Z,17.10
2023-04-06T19:35:09.632Z,17.05
2023-04-06T19:37:38.112Z,17.65
2023-04-06T19:40:10.444Z,18.15
2023-04-06T19:42:39.904Z,18.27
2023-04-06T19:45:09.004Z,18.05
2023-04-06T19:47:38.175Z,18.23
2023-04-06T19:50:07.488Z,19.15
2023-04-06T19:52:35.854Z,18.83
2023-04-06T19:55:04.331Z,19.38
2023-04-06T19:57:32.412Z,20.30
2023-04-06T20:00:01.819Z,19.42
2023-04-06T20:02:37.724Z,19.42
2023-04-06T20:05:06.538Z,19.98
2023-04-06T20:07:34.577Z,20.52
2023-04-06T20:10:06.693Z,19.50
2023-04-06T20:12:36.082Z,18.48
2023-04-06T20:15:06.350Z,20.05
2023-04-06T20:17:34.554Z,19.88
2023-04-06T20:20:02.611Z,20.23
2023-04-06T20:22:30.848Z,20.65
2023-04-06T20:24:58.916Z,20.55
2023-04-06T20:27:27.020Z,20.40
2023-04-06T20:29:55.104Z,21.17
2023-04-06T20:32:24.640Z,20.67
2023-04-06T20:34:53.589Z,22.27
2023-04-06T20:37:24.459Z,21.95
2023-04-06T20:39:52.624Z,20.50
2023-04-06T20:42:21.647Z,21.52
2023-04-06T20:44:49.740Z,23.00
2023-04-06T20:47:17.904Z,24.70
2023-04-06T20:49:47.383Z,22.52
2023-04-06T20:52:16.222Z,21.98
2023-04-06T20:54:44.381Z,21.30
2023-04-06T20:57:12.544Z,22.05
2023-04-06T20:59:40.722Z,21.17
2023-04-06T21:02:09.178Z,20.50
2023-04-06T21:04:38.127Z,22.08
2023-04-06T21:07:08.376Z,21.73
2023-04-06T21:09:38.468Z,22.42
2023-04-06T21:12:07.746Z,21.60
2023-04-06T21:14:36.616Z,21.48
2023-04-06T21:17:05.860Z,21.75
2023-04-06T21:19:33.970Z,22.23
2023-04-06T21:22:02.048Z,21.83
2023-04-06T21:24:31.536Z,21.80
2023-04-06T21:26:59.645Z,23.95
2023-04-06T21:29:27.767Z,22.42
2023-04-06T21:31:55.883Z,21.73
2023-04-06T21:34:23.954Z,22.05
2023-04-06T21:36:52.076Z,21.73
2023-04-06T21:39:20.346Z,21.95
2023-04-06T21:41:49.807Z,21.42
2023-04-06T21:44:18.139Z,21.88
2023-04-06T21:46:46.389Z,22.80
2023-04-06T21:49:14.433Z,21.40
2023-04-06T21:51:42.576Z,22.25
2023-04-06T21:54:10.711Z,21.92
2023-04-06T21:56:39.510Z,21.20
2023-04-06T21:59:08.925Z,21.33
2023-04-06T22:01:37.100Z,21.98
2023-04-06T22:04:05.409Z,21.77
2023-04-06T22:06:33.525Z,21.40
2023-04-06T22:09:02.002Z,23.02
2023-04-06T22:11:30.148Z,21.55
2023-04-06T22:13:58.218Z,19.67
2023-04-06T22:16:27.763Z,19.75
2023-04-06T22:18:55.844Z,18.40
2023-04-06T22:21:23.869Z,18.90
2023-04-06T22:23:52.277Z,17.75
2023-04-06T22:26:20.310Z,19.67
2023-04-06T22:28:48.389Z,18.67
2023-04-06T22:31:16.531Z,17.77
2023-04-06T22:33:45.934Z,18.45
2023-04-06T22:36:14.074Z,17.45
2023-04-06T22:38:43.962Z,17.40
2023-04-06T22:41:12.043Z,17.48
2023-04-06T22:43:40.092Z,16.33
2023-04-06T22:46:08.187Z,16.70
2023-04-06T22:48:36.261Z,15.00
2023-04-06T22:51:06.106Z,14.20
2023-04-06T22:53:34.141Z,14.90
2023-04-06T22:56:02.432Z,15.55
2023-04-06T22:58:30.477Z,14.45
2023-04-06T23:00:58.520Z,13.38
2023-04-06T23:03:27.303Z,14.80
2023-04-06T23:05:55.464Z,12.75
2023-04-06T23:08:24.891Z,13.88
2023-04-06T23:10:52.919Z,13.10
2023-04-06T23:13:21.028Z,12.13
2023-04-06T23:15:49.456Z,12.27
2023-04-06T23:18:17.515Z,11.90
2023-04-06T23:20:45.506Z,12.23
2023-04-06T23:23:13.561Z,11.63
2023-04-06T23:25:43.275Z,11.65
2023-04-06T23:28:11.349Z,12.20
2023-04-06T23:30:39.389Z,11.48
2023-04-06T23:33:07.449Z,11.52
2023-04-06T23:35:35.675Z,10.82
2023-04-06T23:38:03.684Z,10.93
2023-04-06T23:40:31.748Z,10.27
2023-04-06T23:43:01.180Z,10.60
2023-04-06T23:45:29.236Z,10.00
2023-04-06T23:47:57.442Z,10.75
2023-04-06T23:50:25.657Z,10.38
2023-04-06T23:52:53.693Z,9.88
2023-04-06T23:55:21.709Z,10.05
2023-04-06T23:57:49.726Z,9.60
